createdAt,value
2024-02-15T00:01:43.705Z,10.38
2024-02-15T00:04:12.358Z,11.77
2024-02-15T00:06:39.229Z,9.65
2024-02-15T00:09:05.900Z,12.55
2024-02-15T00:11:33.716Z,10.27
2024-02-15T00:14:01.507Z,11.65
2024-02-15T00:16:28.733Z,11.55
2024-02-15T00:18:56.644Z,10.90
2024-02-15T00:21:27.014Z,11.50
2024-02-15T00:23:57.048Z,11.45
2024-02-15T00:26:23.895Z,11.02
2024-02-15T00:28:50.540Z,8.98
2024-02-15T00:31:17.184Z,9.13
2024-02-15T00:33:44.402Z,9.10
2024-02-15T00:36:11.728Z,10.23
2024-02-15T00:38:38.492Z,8.85
2024-02-15T00:41:06.922Z,8.30
2024-02-15T00:43:36.958Z,8.75
2024-02-15T00:46:04.225Z,13.70
2024-02-15T00:48:31.330Z,12.05
2024-02-15T00:50:59.275Z,10.55
2024-02-15T00:53:26.208Z,10.70
2024-02-15T00:55:53.285Z,12.02
2024-02-15T00:58:19.861Z,9.75
2024-02-15T01:00:46.520Z,12.18
2024-02-15T01:03:13.195Z,9.93
2024-02-15T01:05:39.905Z,9.48
2024-02-15T01:08:07.432Z,12.82
2024-02-15T01:10:35.064Z,10.43
2024-02-15T01:13:01.972Z,9.38
2024-02-15T01:15:28.675Z,8.60
2024-02-15T01:17:56.136Z,7.72
2024-02-15T01:20:22.832Z,12.52
2024-02-15T01:22:49.358Z,11.63
2024-02-15T01:25:16.866Z,10.25
2024-02-15T01:27:43.713Z,11.13
2024-02-15T01:30:11.470Z,9.57
2024-02-15T01:32:38.480Z,8.27
2024-02-15T01:35:05.387Z,9.23
2024-02-15T01:37:32.016Z,8.50
2024-02-15T01:39:58.574Z,10.23
2024-02-15T01:42:25.626Z,8.45
2024-02-15T01:44:54.132Z,8.10
2024-02-15T01:47:21.461Z,9.27
2024-02-15T01:52:18.684Z,8.07
2024-02-15T01:54:47.050Z,10.65
2024-02-15T01:57:13.837Z,9.32
2024-02-15T01:59:40.775Z,10.02
2024-02-15T02:02:11.518Z,10.85
2024-02-15T02:04:39.555Z,8.77
2024-02-15T02:07:06.352Z,9.52
2024-02-15T02:09:33.115Z,9.85
2024-02-15T02:12:00.723Z,10.75
2024-02-15T02:17:14.870Z,11.20
2024-02-15T02:19:42.881Z,11.90
2024-02-15T02:22:10.618Z,9.48
2024-02-15T02:24:46.501Z,10.43
2024-02-15T02:27:15.026Z,10.25
2024-02-15T02:29:47.753Z,10.10
2024-02-15T02:32:14.485Z,12.38
2024-02-15T02:34:42.095Z,15.77
2024-02-15T02:37:09.800Z,10.02
2024-02-15T02:39:44.600Z,11.10
2024-02-15T02:42:12.481Z,10.73
2024-02-15T02:44:39.088Z,10.50
2024-02-15T02:47:05.683Z,13.68
2024-02-15T02:49:32.742Z,12.50
2024-02-15T02:51:59.322Z,13.48
2024-02-15T02:54:25.913Z,11.70
2024-02-15T02:56:52.471Z,10.55
2024-02-15T02:59:19.061Z,10.85
2024-02-15T03:01:45.758Z,11.38
2024-02-15T03:04:13.537Z,12.23
2024-02-15T03:06:43.406Z,10.95
2024-02-15T03:09:11.147Z,10.90
2024-02-15T03:11:37.879Z,10.32
2024-02-15T03:14:05.371Z,15.75
2024-02-15T03:16:35.122Z,14.05
2024-02-15T03:19:05.815Z,11.50
2024-02-15T03:21:32.761Z,10.93
2024-02-15T03:23:59.590Z,13.30
2024-02-15T03:26:39.623Z,11.10
2024-02-15T03:29:06.385Z,10.38
2024-02-15T03:31:34.733Z,11.20
2024-02-15T03:34:01.849Z,9.90
2024-02-15T03:36:30.401Z,11.13
2024-02-15T03:38:57.178Z,10.38
2024-02-15T03:41:24.103Z,10.55
2024-02-15T03:43:51.549Z,10.38
2024-02-15T03:46:18.148Z,12.43
2024-02-15T03:48:45.546Z,8.55
2024-02-15T03:51:12.453Z,11.10
2024-02-15T03:53:39.053Z,8.57
2024-02-15T03:56:05.793Z,8.93
2024-02-15T03:58:34.047Z,10.05
2024-02-15T04:01:00.872Z,12.10
2024-02-15T04:03:27.641Z,12.35
2024-02-15T04:05:54.395Z,9.60
2024-02-15T04:08:21.051Z,10.77
2024-02-15T04:10:50.180Z,10.35
2024-02-15T04:13:18.387Z,9.85
2024-02-15T04:15:45.436Z,10.32
2024-02-15T04:18:13.714Z,10.90
2024-02-15T04:20:46.009Z,11.13
2024-02-15T04:23:13.131Z,10.65
2024-02-15T04:25:40.191Z,9.85
2024-02-15T04:28:07.798Z,9.35
2024-02-15T04:30:36.138Z,9.70
2024-02-15T04:33:02.823Z,11.25
2024-02-15T04:35:32.264Z,10.10
2024-02-15T04:37:58.944Z,8.75
2024-02-15T04:40:25.485Z,10.35
2024-02-15T04:42:52.129Z,9.43
2024-02-15T04:45:20.108Z,9.82
2024-02-15T04:47:47.728Z,8.75
2024-02-15T04:50:14.793Z,9.27
2024-02-15T04:52:41.330Z,8.90
2024-02-15T04:55:08.376Z,10.57
2024-02-15T04:57:37.903Z,7.97
2024-02-15T05:00:12.642Z,8.18
2024-02-15T05:02:42.318Z,10.48
2024-02-15T05:05:09.786Z,8.98
2024-02-15T05:07:38.685Z,9.48
2024-02-15T05:10:07.390Z,8.93
2024-02-15T05:12:36.904Z,9.10
2024-02-15T05:15:11.405Z,9.10
2024-02-15T05:17:42.182Z,10.43
2024-02-15T05:20:14.849Z,9.70
2024-02-15T05:22:50.359Z,9.43
2024-02-15T05:25:23.787Z,11.32
2024-02-15T05:27:51.555Z,7.20
2024-02-15T05:30:18.429Z,9.70
2024-02-15T05:32:46.725Z,7.60
2024-02-15T05:35:13.621Z,6.55
2024-02-15T05:37:40.535Z,9.38
2024-02-15T05:40:08.524Z,6.78
2024-02-15T05:42:36.079Z,7.50
2024-02-15T05:45:41.531Z,8.23
2024-02-15T05:50:36.153Z,9.55
2024-02-15T05:55:30.580Z,5.15
2024-02-15T05:57:57.169Z,7.53
2024-02-15T06:00:24.293Z,8.75
2024-02-15T06:05:21.254Z,6.15
2024-02-15T06:07:48.677Z,8.10
2024-02-15T06:10:16.524Z,8.95
2024-02-15T06:12:44.087Z,7.10
2024-02-15T06:17:45.407Z,8.07
2024-02-15T06:20:15.193Z,9.40
2024-02-15T06:22:42.611Z,10.27
2024-02-15T06:25:11.272Z,6.72
2024-02-15T06:27:41.875Z,9.90
2024-02-15T06:30:29.185Z,10.85
2024-02-15T06:33:14.711Z,8.90
2024-02-15T06:35:59.885Z,9.57
2024-02-15T06:38:45.197Z,9.40
2024-02-15T06:41:11.944Z,9.30
2024-02-15T06:43:38.683Z,10.45
2024-02-15T06:46:08.020Z,16.33
2024-02-15T06:48:34.786Z,16.92
2024-02-15T06:51:01.633Z,21.08
2024-02-15T06:53:28.206Z,21.42
2024-02-15T06:55:54.920Z,25.02
2024-02-15T06:58:21.688Z,25.73
2024-02-15T07:00:51.396Z,28.85
2024-02-15T07:03:18.235Z,30.42
2024-02-15T07:05:45.330Z,33.38
2024-02-15T07:08:12.125Z,26.35
2024-02-15T07:10:42.527Z,26.08
2024-02-15T07:13:09.155Z,27.08
2024-02-15T07:15:39.127Z,29.27
2024-02-15T07:18:07.496Z,24.70
2024-02-15T07:20:35.453Z,24.40
2024-02-15T07:23:02.207Z,22.67
2024-02-15T07:25:28.890Z,25.10
2024-02-15T07:27:55.564Z,25.33
2024-02-15T07:30:24.909Z,29.60
2024-02-15T07:32:52.757Z,25.35
2024-02-15T07:35:19.473Z,31.25
2024-02-15T07:37:56.946Z,27.20
2024-02-15T07:40:23.859Z,24.60
2024-02-15T07:42:50.526Z,23.80
2024-02-15T07:45:18.375Z,23.45
2024-02-15T07:47:46.258Z,24.45
2024-02-15T07:50:20.414Z,21.70
2024-02-15T07:52:49.013Z,23.98
2024-02-15T07:55:15.825Z,24.33
2024-02-15T07:57:42.517Z,30.08
2024-02-15T08:00:12.177Z,30.10
2024-02-15T08:02:41.931Z,26.55
2024-02-15T08:05:11.620Z,25.40
2024-02-15T08:07:48.795Z,26.80
2024-02-15T08:10:15.537Z,25.45
2024-02-15T08:12:43.894Z,25.63
2024-02-15T08:15:13.282Z,25.33
2024-02-15T08:17:47.399Z,24.33
2024-02-15T08:20:14.884Z,28.17
2024-02-15T08:25:13.116Z,27.98
2024-02-15T08:27:45.610Z,28.08
2024-02-15T08:30:14.648Z,26.38
2024-02-15T08:32:43.643Z,28.63
2024-02-15T08:35:11.709Z,26.15
2024-02-15T08:37:39.934Z,34.58
2024-02-15T08:40:12.066Z,35.90
2024-02-15T08:42:42.980Z,33.58
2024-02-15T08:45:10.882Z,30.35
2024-02-15T08:47:42.873Z,28.98
2024-02-15T08:50:11.063Z,28.10
2024-02-15T08:52:41.582Z,27.60
2024-02-15T08:55:15.731Z,31.77
2024-02-15T08:57:45.134Z,29.52
2024-02-15T09:00:17.168Z,32.85
2024-02-15T09:02:45.286Z,29.70
2024-02-15T09:05:15.710Z,33.05
2024-02-15T09:07:44.010Z,29.88
2024-02-15T09:10:11.701Z,26.58
2024-02-15T09:12:42.174Z,29.58
2024-02-15T09:15:14.256Z,26.90
2024-02-15T09:17:41.366Z,26.50
2024-02-15T09:22:37.067Z,28.33
2024-02-15T09:25:04.484Z,26.70
2024-02-15T09:27:31.073Z,30.00
2024-02-15T09:29:57.709Z,31.25
2024-02-15T09:32:24.484Z,28.13
2024-02-15T09:34:51.149Z,28.50
2024-02-15T09:37:17.776Z,27.65
2024-02-15T09:39:44.357Z,29.98
2024-02-15T09:42:11.255Z,29.58
2024-02-15T09:44:38.575Z,30.35
2024-02-15T09:47:08.085Z,28.90
2024-02-15T09:49:40.918Z,28.63
2024-02-15T09:52:17.304Z,26.52
2024-02-15T09:54:45.157Z,36.42
2024-02-15T09:57:12.763Z,29.48
2024-02-15T09:59:41.141Z,31.10
2024-02-15T10:02:12.199Z,31.65
2024-02-15T10:04:41.200Z,28.23
2024-02-15T10:07:10.736Z,30.63
2024-02-15T10:09:43.905Z,26.75
2024-02-15T10:12:10.802Z,27.98
2024-02-15T10:14:37.665Z,26.67
2024-02-15T10:17:18.356Z,29.25
2024-02-15T10:19:45.497Z,33.33
2024-02-15T10:22:15.939Z,31.95
2024-02-15T10:24:42.825Z,28.40
2024-02-15T10:27:11.512Z,29.20
2024-02-15T10:29:39.905Z,27.92
2024-02-15T10:32:11.393Z,31.55
2024-02-15T10:34:48.329Z,28.13
2024-02-15T10:37:20.265Z,23.90
2024-02-15T10:39:48.033Z,25.58
2024-02-15T10:42:16.553Z,27.00
2024-02-15T10:44:44.588Z,32.33
2024-02-15T10:47:11.313Z,30.40
2024-02-15T10:49:38.070Z,27.60
2024-02-15T10:52:05.782Z,26.73
2024-02-15T10:54:45.674Z,22.58
2024-02-15T10:59:58.741Z,29.25
2024-02-15T11:02:35.947Z,35.00
2024-02-15T11:05:05.618Z,33.70
2024-02-15T11:07:33.476Z,34.33
2024-02-15T11:10:01.132Z,30.98
2024-02-15T11:12:29.556Z,26.52
2024-02-15T11:14:56.621Z,28.42
2024-02-15T11:20:10.164Z,29.95
2024-02-15T11:22:37.805Z,26.73
2024-02-15T11:25:10.025Z,27.23
2024-02-15T11:27:44.991Z,26.05
2024-02-15T11:30:13.826Z,26.20
2024-02-15T11:32:42.082Z,24.73
2024-02-15T11:35:15.532Z,26.52
2024-02-15T11:37:55.166Z,26.00
2024-02-15T11:40:42.464Z,23.50
2024-02-15T11:43:12.617Z,25.70
2024-02-15T11:45:42.575Z,23.88
2024-02-15T11:48:14.295Z,22.23
2024-02-15T11:50:42.482Z,26.10
2024-02-15T11:53:13.405Z,23.90
2024-02-15T11:55:42.614Z,21.63
2024-02-15T11:58:10.557Z,20.20
2024-02-15T12:00:57.622Z,18.25
2024-02-15T12:03:52.402Z,22.42
2024-02-15T12:06:50.833Z,22.35
2024-02-15T12:09:40.007Z,20.40
2024-02-15T12:12:26.120Z,20.45
2024-02-15T12:15:21.178Z,21.13
2024-02-15T12:18:06.827Z,23.25
2024-02-15T12:20:34.349Z,21.23
2024-02-15T12:23:01.890Z,18.00
2024-02-15T12:25:28.889Z,14.93
2024-02-15T12:28:01.078Z,16.77
2024-02-15T12:30:34.114Z,16.77
2024-02-15T12:33:12.660Z,19.17
2024-02-15T12:35:39.648Z,16.88
2024-02-15T12:38:06.682Z,21.52
2024-02-15T12:40:35.373Z,18.55
2024-02-15T12:43:02.218Z,21.10
2024-02-15T12:45:31.228Z,16.38
2024-02-15T12:47:59.070Z,18.42
2024-02-15T12:50:30.842Z,16.98
2024-02-15T12:53:03.270Z,20.13
2024-02-15T12:55:37.390Z,18.98
2024-02-15T12:58:09.693Z,16.23
2024-02-15T13:00:40.136Z,17.48
2024-02-15T13:03:12.972Z,15.85
2024-02-15T13:05:41.069Z,15.30
2024-02-15T13:08:14.779Z,15.98
2024-02-15T13:10:42.100Z,17.98
2024-02-15T13:13:13.273Z,17.73
2024-02-15T13:15:40.387Z,18.05
2024-02-15T13:18:11.434Z,17.33
2024-02-15T13:20:39.252Z,18.02
2024-02-15T13:23:15.595Z,21.30
2024-02-15T13:25:44.414Z,18.58
2024-02-15T13:28:14.667Z,20.13
2024-02-15T13:30:44.260Z,18.98
2024-02-15T13:33:11.471Z,24.50
2024-02-15T13:35:38.419Z,16.65
2024-02-15T13:38:04.978Z,21.02
2024-02-15T13:40:32.877Z,22.77
2024-02-15T13:43:01.090Z,19.52
2024-02-15T13:45:34.333Z,22.20
2024-02-15T13:48:04.670Z,23.10
2024-02-15T13:50:32.380Z,22.25
2024-02-15T13:52:59.780Z,20.75
2024-02-15T13:55:27.438Z,18.58
2024-02-15T13:57:55.195Z,17.35
2024-02-15T14:00:30.539Z,20.20
2024-02-15T14:02:59.608Z,19.85
2024-02-15T14:05:31.630Z,19.05
2024-02-15T14:08:03.458Z,18.23
2024-02-15T14:10:31.753Z,22.75
2024-02-15T14:13:04.780Z,24.05
2024-02-15T14:15:31.839Z,22.00
2024-02-15T14:18:02.533Z,23.33
2024-02-15T14:20:29.222Z,26.90
2024-02-15T14:22:58.776Z,24.65
2024-02-15T14:25:32.332Z,22.63
2024-02-15T14:27:59.483Z,22.45
2024-02-15T14:30:44.898Z,22.83
2024-02-15T14:35:47.351Z,24.92
2024-02-15T14:38:14.967Z,23.88
2024-02-15T14:40:46.250Z,19.48
2024-02-15T14:43:19.793Z,19.00
2024-02-15T14:45:46.984Z,19.70
2024-02-15T14:48:14.705Z,22.10
2024-02-15T14:50:41.727Z,21.83
2024-02-15T14:53:09.219Z,18.77
2024-02-15T14:55:36.939Z,19.17
2024-02-15T14:58:04.873Z,21.10
2024-02-15T15:00:37.906Z,19.27
2024-02-15T15:03:05.540Z,18.90
2024-02-15T15:05:51.242Z,20.83
2024-02-15T15:08:36.224Z,23.92
2024-02-15T15:11:21.392Z,22.80
2024-02-15T15:13:48.028Z,21.13
2024-02-15T15:16:18.922Z,21.27
2024-02-15T15:18:47.474Z,22.15
2024-02-15T15:21:17.803Z,21.20
2024-02-15T15:23:44.873Z,22.25
2024-02-15T15:26:12.644Z,20.08
2024-02-15T15:28:40.109Z,24.85
2024-02-15T15:31:08.353Z,25.45
2024-02-15T15:33:35.230Z,22.85
2024-02-15T15:36:02.067Z,26.95
2024-02-15T15:38:28.719Z,21.42
2024-02-15T15:40:55.891Z,25.00
2024-02-15T15:43:24.369Z,22.23
2024-02-15T15:45:52.546Z,20.05
2024-02-15T15:48:19.474Z,19.63
2024-02-15T15:50:46.190Z,23.27
2024-02-15T15:53:12.844Z,24.77
2024-02-15T15:55:39.440Z,24.40
2024-02-15T15:58:06.573Z,22.50
2024-02-15T16:03:02.926Z,19.52
2024-02-15T16:05:29.652Z,20.40
2024-02-15T16:07:56.398Z,24.25
2024-02-15T16:10:29.314Z,23.90
2024-02-15T16:15:28.756Z,22.33
2024-02-15T16:20:23.987Z,22.77
2024-02-15T16:22:50.862Z,22.67
2024-02-15T16:25:17.759Z,23.88
2024-02-15T16:27:44.903Z,22.00
2024-02-15T16:32:39.738Z,21.60
2024-02-15T16:35:12.347Z,22.00
2024-02-15T16:37:43.063Z,21.92
2024-02-15T16:40:13.010Z,19.42
2024-02-15T16:42:44.099Z,26.13
2024-02-15T16:45:13.280Z,21.70
2024-02-15T16:47:47.149Z,22.33
2024-02-15T16:50:14.668Z,18.92
2024-02-15T16:52:44.122Z,23.08
2024-02-15T16:55:11.764Z,22.63
2024-02-15T16:57:39.835Z,25.17
2024-02-15T17:00:08.586Z,24.92
2024-02-15T17:02:39.945Z,25.00
2024-02-15T17:05:09.005Z,25.20
2024-02-15T17:07:36.357Z,25.38
2024-02-15T17:14:56.868Z,21.73
2024-02-15T17:17:25.090Z,26.23
2024-02-15T17:19:52.669Z,23.42
2024-02-15T17:22:19.912Z,29.35
2024-02-15T17:24:46.668Z,23.20
2024-02-15T17:27:13.737Z,26.60
2024-02-15T17:32:09.708Z,25.48
2024-02-15T17:34:36.638Z,29.27
2024-02-15T17:37:03.512Z,28.77
2024-02-15T17:39:30.122Z,30.60
2024-02-15T17:41:56.885Z,28.45
2024-02-15T17:44:23.839Z,28.17
2024-02-15T17:46:51.345Z,30.67
2024-02-15T17:49:19.574Z,30.02
2024-02-15T17:51:47.231Z,28.27
2024-02-15T17:54:15.055Z,26.58
2024-02-15T17:56:42.877Z,31.27
2024-02-15T17:59:11.527Z,26.30
2024-02-15T18:01:41.110Z,25.88
2024-02-15T18:04:08.470Z,29.40
2024-02-15T18:06:35.459Z,30.90
2024-02-15T18:09:02.313Z,30.65
2024-02-15T18:11:29.663Z,28.63
2024-02-15T18:13:56.453Z,28.25
2024-02-15T18:16:23.227Z,28.13
2024-02-15T18:18:50.805Z,27.08
2024-02-15T18:21:17.962Z,29.10
2024-02-15T18:23:46.459Z,27.75
2024-02-15T18:26:13.344Z,32.67
2024-02-15T18:28:40.003Z,28.98
2024-02-15T18:31:09.554Z,29.98
2024-02-15T18:33:40.666Z,27.35
2024-02-15T18:36:09.994Z,28.65
2024-02-15T18:38:40.424Z,27.88
2024-02-15T18:41:07.340Z,30.60
2024-02-15T18:43:35.998Z,27.35
2024-02-15T18:46:02.932Z,27.88
2024-02-15T18:48:33.504Z,36.40
2024-02-15T18:51:00.415Z,31.15
2024-02-15T18:53:27.089Z,33.25
2024-02-15T18:55:56.871Z,31.25
2024-02-15T18:58:26.987Z,32.67
2024-02-15T19:00:58.230Z,32.58
2024-02-15T19:03:26.322Z,33.60
2024-02-15T19:05:53.396Z,35.20
2024-02-15T19:08:20.851Z,31.05
2024-02-15T19:10:47.910Z,34.83
2024-02-15T19:13:15.025Z,30.10
2024-02-15T19:15:41.740Z,31.67
2024-02-15T19:18:12.140Z,30.92
2024-02-15T19:20:39.617Z,30.92
2024-02-15T19:25:36.167Z,32.22
2024-02-15T19:28:06.545Z,28.83
2024-02-15T19:30:33.638Z,32.25
2024-02-15T19:33:00.462Z,28.77
2024-02-15T19:35:27.188Z,31.52
2024-02-15T19:37:53.811Z,30.23
2024-02-15T19:40:20.848Z,31.77
2024-02-15T19:42:49.821Z,30.88
2024-02-15T19:45:21.795Z,28.60
2024-02-15T19:47:50.660Z,31.27
2024-02-15T19:50:23.280Z,24.60
2024-02-15T19:52:50.366Z,26.65
2024-02-15T19:55:17.390Z,26.98
2024-02-15T19:57:44.204Z,29.38
2024-02-15T20:00:11.621Z,25.50
2024-02-15T20:02:38.491Z,26.42
2024-02-15T20:05:08.102Z,32.22
2024-02-15T20:07:38.595Z,30.30
2024-02-15T20:10:09.032Z,27.13
2024-02-15T20:12:37.193Z,26.00
2024-02-15T20:15:04.786Z,28.38
2024-02-15T20:17:31.866Z,28.15
2024-02-15T20:19:58.871Z,30.17
2024-02-15T20:22:25.653Z,29.70
2024-02-15T20:24:52.229Z,28.80
2024-02-15T20:27:22.729Z,26.83
2024-02-15T20:29:52.991Z,28.08
2024-02-15T20:32:19.867Z,28.02
2024-02-15T20:34:47.465Z,28.15
2024-02-15T20:37:15.111Z,23.38
2024-02-15T20:39:41.794Z,27.58
2024-02-15T20:42:09.651Z,27.98
2024-02-15T20:44:38.119Z,30.85
2024-02-15T20:47:11.192Z,29.52
2024-02-15T20:49:40.135Z,27.90
2024-02-15T20:52:08.458Z,26.75
2024-02-15T20:54:35.173Z,29.08
2024-02-15T20:57:02.007Z,29.05
2024-02-15T20:59:28.791Z,27.13
2024-02-15T21:01:55.967Z,27.58
2024-02-15T21:04:22.909Z,30.58
2024-02-15T21:06:50.440Z,27.40
2024-02-15T21:09:17.631Z,26.95
2024-02-15T21:14:15.919Z,21.08
2024-02-15T21:16:43.581Z,28.48
2024-02-15T21:19:11.037Z,23.48
2024-02-15T21:21:38.627Z,24.70
2024-02-15T21:24:07.107Z,30.10
2024-02-15T21:26:34.135Z,25.45
2024-02-15T21:29:00.833Z,26.33
2024-02-15T21:31:27.571Z,26.45
2024-02-15T21:33:55.535Z,26.83
2024-02-15T21:36:22.722Z,25.88
2024-02-15T21:38:51.729Z,23.88
2024-02-15T21:41:18.585Z,27.70
2024-02-15T21:43:45.264Z,23.52
2024-02-15T21:46:12.434Z,23.13
2024-02-15T21:51:06.524Z,26.08
2024-02-15T21:53:33.516Z,25.02
2024-02-15T21:56:00.872Z,24.23
2024-02-15T21:58:28.015Z,23.50
2024-02-15T22:00:56.221Z,24.38
2024-02-15T22:03:24.301Z,28.17
2024-02-15T22:05:51.452Z,23.98
2024-02-15T22:08:18.578Z,24.45
2024-02-15T22:10:45.229Z,27.88
2024-02-15T22:13:15.055Z,23.30
2024-02-15T22:15:42.093Z,26.90
2024-02-15T22:18:09.430Z,22.80
2024-02-15T22:20:36.447Z,23.65
2024-02-15T22:23:03.945Z,23.45
2024-02-15T22:25:33.766Z,22.60
2024-02-15T22:28:00.476Z,22.25
2024-02-15T22:30:27.214Z,22.42
2024-02-15T22:32:54.333Z,22.20
2024-02-15T22:35:21.038Z,19.52
2024-02-15T22:37:48.769Z,22.00
2024-02-15T22:40:15.956Z,22.77
2024-02-15T22:42:42.730Z,18.83
2024-02-15T22:45:10.882Z,25.60
2024-02-15T22:47:37.853Z,25.60
2024-02-15T22:50:05.172Z,25.17
2024-02-15T22:55:05.594Z,21.35
2024-02-15T22:57:33.056Z,22.95
2024-02-15T23:00:00.972Z,21.52
2024-02-15T23:02:27.678Z,20.38
2024-02-15T23:04:54.315Z,21.70
2024-02-15T23:07:24.446Z,24.90
2024-02-15T23:09:51.389Z,22.70
2024-02-15T23:12:18.092Z,25.85
2024-02-15T23:14:45.677Z,22.33
2024-02-15T23:17:12.519Z,21.55
2024-02-15T23:19:40.422Z,24.67
2024-02-15T23:22:10.060Z,27.02
2024-02-15T23:24:38.633Z,25.05
2024-02-15T23:27:06.729Z,26.58
2024-02-15T23:29:33.610Z,21.13
2024-02-15T23:32:00.167Z,21.92
2024-02-15T23:34:27.005Z,20.38
2024-02-15T23:37:12.308Z,22.90
2024-02-15T23:39:59.198Z,20.05
2024-02-15T23:42:26.924Z,19.13
2024-02-15T23:44:53.790Z,19.17
2024-02-15T23:47:20.709Z,24.63
2024-02-15T23:49:47.508Z,20.80
2024-02-15T23:52:14.072Z,21.55
2024-02-15T23:54:40.738Z,21.08
2024-02-15T23:57:07.742Z,22.95
2024-02-15T23:59:34.685Z,23.67
